Time;durP1;ratioP1;P1;durP2;ratioP2;P2;SDS_P1;SDS_P2;PMS_P1;PMS_P2;Temp;Humidity;BMP_temperature;BMP_pressure;BME280_temperature;BME280_humidity;BME280_pressure;Samples;Min_cycle;Max_cycle;Signal;HPM_P1;HPM_P2
2021/01/04 00:00:10;;;;;;;80.72;23.92;;;;;;;7.72;86.02;99267.06;4933172;29;20488;-77
2021/01/04 00:03:00;;;;;;;67.18;22.65;;;;;;;7.76;86.66;99271.59;4930196;29;20063;-76
2021/01/04 00:05:32;;;;;;;66.05;22.00;;;;;;;7.78;86.18;99263.38;4934605;29;20055;-76
2021/01/04 00:08:20;;;;;;;66.85;21.52;;;;;;;7.80;86.06;99256.75;4935678;29;20493;-76
2021/01/04 00:10:48;;;;;;;;;;;;;;;7.79;86.28;99249.81;4876869;29;20535;-76
2021/01/04 00:14:03;;;;;;;59.97;19.02;;;;;;;7.80;85.89;99259.41;4907995;29;19923;-75
2021/01/04 00:17:00;;;;;;;47.13;18.33;;;;;;;7.81;86.04;99269.00;4884655;29;20063;-76
2021/01/04 00:19:53;;;;;;;74.70;20.92;;;;;;;7.82;85.96;99248.50;4909782;29;20032;-76
2021/01/04 00:22:38;;;;;;;61.55;20.42;;;;;;;7.83;86.27;99258.09;4921325;29;20055;-76
2021/01/04 00:25:23;;;;;;;68.38;22.23;;;;;;;7.84;86.09;99260.50;4936994;29;20047;-79
2021/01/04 00:27:57;;;;;;;70.60;20.88;;;;;;;7.87;86.21;99239.75;4932616;29;20034;-76
2021/01/04 00:30:55;;;;;;;66.78;21.95;;;;;;;7.83;86.59;99242.13;4926757;29;20032;-77
2021/01/04 00:33:23;;;;;;;;;;;;;;;7.81;86.43;99250.38;4897120;29;20123;-78
2021/01/04 00:35:51;;;;;;;;;;;;;;;7.80;86.71;99247.94;4897248;29;20380;-76
2021/01/04 00:38:44;;;;;;;73.10;23.45;;;;;;;7.80;86.37;99250.59;4917709;29;19993;-78
2021/01/04 00:41:21;;;;;;;65.50;22.27;;;;;;;7.77;86.38;99235.94;4933740;29;20031;-77
2021/01/04 00:43:50;;;;;;;82.53;22.90;;;;;;;7.77;86.55;99227.16;4920603;29;20083;-76
2021/01/04 00:46:20;;;;;;;83.60;21.70;;;;;;;7.77;87.16;99237.81;4910433;29;20028;-75
2021/01/04 00:49:01;;;;;;;63.50;21.77;;;;;;;7.77;86.94;99243.13;4932899;29;20468;-77
2021/01/04 00:51:29;;;;;;;58.92;21.33;;;;;;;7.76;86.68;99247.63;4914631;29;20496;-79
2021/01/04 00:53:55;;;;;;;72.63;23.55;;;;;;;7.74;87.02;99239.13;4924634;29;20090;-79
2021/01/04 00:56:24;;;;;;;78.57;22.40;;;;;;;7.74;87.46;99233.78;4927675;29;20039;-78
2021/01/04 00:59:16;;;;;;;89.97;23.27;;;;;;;7.76;87.41;99241.53;4934473;29;20058;-78
2021/01/04 01:02:00;;;;;;;75.65;22.73;;;;;;;7.74;87.73;99232.97;4925048;29;20024;-79
2021/01/04 01:04:31;;;;;;;87.43;23.08;;;;;;;7.74;87.54;99228.47;4915396;29;20036;-79
2021/01/04 01:07:09;;;;;;;83.82;21.17;;;;;;;7.77;87.37;99224.50;4915564;29;20024;-79
2021/01/04 01:09:38;;;;;;;67.70;21.23;;;;;;;7.77;87.42;99222.63;4917890;29;20580;-78
2021/01/04 01:12:18;;;;;;;88.97;21.65;;;;;;;7.76;86.99;99220.22;4934478;29;20032;-78
2021/01/04 01:14:46;;;;;;;68.30;18.48;;;;;;;7.74;87.36;99212.50;4919155;29;20036;-79
2021/01/04 01:17:18;;;;;;;69.72;21.23;;;;;;;7.74;87.41;99217.00;4915856;29;20128;-79
2021/01/04 01:19:55;;;;;;;66.80;21.50;;;;;;;7.77;87.64;99227.16;4916007;29;20040;-80
2021/01/04 01:22:35;;;;;;;50.20;16.50;;;;;;;7.77;87.75;99219.97;4923786;29;20564;-79
2021/01/04 01:25:09;;;;;;;59.03;18.17;;;;;;;7.77;87.43;99217.31;4916991;29;20496;-80
2021/01/04 01:28:12;;;;;;;64.90;20.52;;;;;;;7.78;87.99;99204.81;4930595;29;20123;-79
2021/01/04 01:30:57;;;;;;;72.63;18.88;;;;;;;7.77;87.48;99185.34;4935721;29;20035;-79
2021/01/04 01:33:50;;;;;;;88.88;17.88;;;;;;;7.71;87.47;99170.41;4935478;29;20035;-78
2021/01/04 01:36:42;;;;;;;54.45;16.48;;;;;;;7.69;87.43;99175.19;4937835;29;20178;-76
2021/01/04 01:39:29;;;;;;;58.67;18.58;;;;;;;7.68;87.92;99184.22;4898575;29;20043;-76
2021/01/04 01:42:19;;;;;;;57.22;18.55;;;;;;;7.64;87.96;99169.81;4914678;29;20472;-78
2021/01/04 01:44:44;;;;;;;58.70;17.35;;;;;;;7.62;87.67;99177.25;4916975;29;20040;-78
2021/01/04 01:47:36;;;;;;;69.97;19.73;;;;;;;7.61;88.06;99167.66;4919709;29;20159;-78
2021/01/04 01:50:01;;;;;;;67.32;18.67;;;;;;;7.58;88.43;99170.81;4919759;29;20037;-77
2021/01/04 01:52:43;;;;;;;57.75;18.98;;;;;;;7.61;88.33;99181.75;4927843;29;20031;-78
2021/01/04 01:55:41;;;;;;;45.67;17.17;;;;;;;7.61;88.29;99165.00;4940591;29;20058;-78
2021/01/04 01:58:09;;;;;;;90.80;19.15;;;;;;;7.60;88.10;99164.19;4927894;29;20139;-79
2021/01/04 02:00:58;;;;;;;81.68;20.05;;;;;;;7.57;88.36;99154.06;4919975;29;20573;-78
2021/01/04 02:03:33;;;;;;;55.58;18.98;;;;;;;7.52;88.47;99138.06;4904123;29;20044;-78
2021/01/04 02:06:24;;;;;;;67.35;20.17;;;;;;;7.47;88.51;99153.94;4931752;29;20027;-77
2021/01/04 02:09:23;;;;;;;58.25;19.92;;;;;;;7.47;88.75;99153.94;4938403;29;20067;-79
2021/01/04 02:12:12;;;;;;;46.90;15.90;;;;;;;7.43;88.95;99145.66;4925705;29;20127;-79
2021/01/04 02:14:44;;;;;;;72.28;18.55;;;;;;;7.45;88.10;99143.56;4919876;29;20032;-77
2021/01/04 02:17:28;;;;;;;54.95;17.23;;;;;;;7.40;88.17;99150.69;4906526;29;20040;-79
2021/01/04 02:20:02;;;;;;;56.05;17.23;;;;;;;7.35;87.90;99149.59;4907531;29;20466;-79
2021/01/04 02:22:43;;;;;;;72.05;18.10;;;;;;;7.29;88.42;99137.31;4919243;29;20565;-77
2021/01/04 02:25:09;;;;;;;60.75;22.27;;;;;;;7.31;88.30;99131.72;4915997;29;20028;-76
2021/01/04 02:27:44;;;;;;;63.50;20.17;;;;;;;7.30;88.83;99140.75;4916679;29;20040;-79
2021/01/04 02:30:10;;;;;;;84.63;20.27;;;;;;;7.25;88.72;99130.91;4900670;29;20448;-77
2021/01/04 02:32:36;;;;;;;146.98;24.42;;;;;;;7.23;88.74;99138.31;4899763;29;20030;-77
2021/01/04 02:35:02;;;;;;;71.20;21.77;;;;;;;7.21;88.71;99135.91;4902051;29;20493;-78
2021/01/04 02:37:28;;;;;;;98.43;21.83;;;;;;;7.18;88.83;99151.56;4891489;29;20032;-76
2021/01/04 02:40:10;;;;;;;75.70;21.88;;;;;;;7.13;88.99;99138.19;4897343;29;20033;-77
2021/01/04 02:42:39;;;;;;;146.95;22.13;;;;;;;7.11;89.55;99121.72;4892015;29;20032;-76
2021/01/04 02:45:12;;;;;;;116.78;19.95;;;;;;;7.03;89.72;99113.13;4898368;29;20037;-76
2021/01/04 02:47:56;;;;;;;69.60;19.95;;;;;;;7.00;90.03;99108.28;4895878;29;20036;-77
2021/01/04 02:50:43;;;;;;;70.05;17.75;;;;;;;6.98;90.39;99104.28;4916335;29;20508;-77
2021/01/04 02:53:36;;;;;;;49.95;15.95;;;;;;;6.97;90.44;99110.66;4911367;29;20382;-79
2021/01/04 02:56:10;;;;;;;73.40;17.05;;;;;;;6.94;90.14;99100.53;4914790;29;20038;-77
2021/01/04 02:59:00;;;;;;;93.88;17.83;;;;;;;6.89;90.80;99099.41;4910959;29;20115;-75
2021/01/04 03:01:35;;;;;;;82.15;18.23;;;;;;;6.86;90.93;99112.41;4926624;29;20499;-77
2021/01/04 03:04:01;;;;;;;52.13;17.38;;;;;;;6.88;91.14;99123.59;4919673;29;20044;-78
2021/01/04 03:06:37;;;;;;;58.47;17.80;;;;;;;6.91;90.91;99124.94;4916123;29;20095;-78
2021/01/04 03:09:07;;;;;;;65.20;16.85;;;;;;;6.93;91.02;99117.53;4914588;29;20156;-78
2021/01/04 03:11:32;;;;;;;62.63;17.20;;;;;;;6.95;90.74;99107.47;4916765;29;20040;-78
2021/01/04 03:14:29;;;;;;;74.75;16.95;;;;;;;6.94;90.39;99098.66;4917076;29;20058;-78
2021/01/04 03:17:08;;;;;;;97.10;17.33;;;;;;;6.95;90.75;99094.16;4912855;29;20130;-78
2021/01/04 03:19:39;;;;;;;111.50;18.27;;;;;;;6.93;90.94;99091.72;4898487;29;20546;-77
2021/01/04 03:22:09;;;;;;;85.93;18.63;;;;;;;6.91;91.61;99093.84;4895449;29;20132;-78
2021/01/04 03:24:34;;;;;;;65.88;18.35;;;;;;;6.93;91.14;99112.22;4891804;29;20562;-79
2021/01/04 03:27:04;;;;;;;51.72;16.42;;;;;;;6.95;91.30;99115.44;4908322;29;20028;-78
2021/01/04 03:29:30;;;;;;;67.88;16.67;;;;;;;6.98;91.42;99110.41;4901718;29;20045;-78
2021/01/04 03:31:55;;;;;;;81.15;17.40;;;;;;;7.01;91.14;99101.94;4897209;29;20044;-78
2021/01/04 03:34:21;;;;;;;79.55;16.67;;;;;;;7.01;91.49;99099.25;4893495;29;20071;-78
2021/01/04 03:36:47;;;;;;;78.75;17.52;;;;;;;7.04;91.38;99101.44;4899478;29;20059;-79
2021/01/04 03:39:13;;;;;;;51.95;16.92;;;;;;;7.05;91.18;99095.06;4905381;29;20040;-79
2021/01/04 03:41:39;;;;;;;95.35;19.95;;;;;;;7.06;91.48;99087.88;4907676;29;20036;-81
2021/01/04 03:44:06;;;;;;;71.32;15.82;;;;;;;7.10;91.49;99086.31;4903239;29;20044;-79
2021/01/04 03:46:31;;;;;;;80.82;19.33;;;;;;;7.12;91.04;99080.75;4909554;29;20028;-78
2021/01/04 03:48:57;;;;;;;87.80;18.20;;;;;;;7.12;91.07;99076.25;4914792;29;20528;-78
2021/01/04 03:51:22;;;;;;;64.05;19.77;;;;;;;7.14;91.87;99078.63;4907964;29;20043;-78
2021/01/04 03:53:47;;;;;;;102.93;18.77;;;;;;;7.13;91.02;99072.53;4895399;29;20032;-77
2021/01/04 03:56:15;;;;;;;91.72;19.05;;;;;;;7.16;91.24;99077.31;4916671;29;20593;-77
2021/01/04 03:58:40;;;;;;;63.88;17.55;;;;;;;7.17;91.38;99086.91;4934569;29;20228;-77
2021/01/04 04:01:05;;;;;;;53.10;18.42;;;;;;;7.19;91.61;99086.69;4924911;29;20036;-78
2021/01/04 04:03:31;;;;;;;57.38;18.70;;;;;;;7.20;91.20;99086.44;4898573;29;20458;-78
2021/01/04 04:05:56;;;;;;;77.93;17.67;;;;;;;7.24;91.10;99081.41;4898844;29;20032;-79
2021/01/04 04:08:22;;;;;;;74.28;15.60;;;;;;;7.22;91.25;99068.34;4898940;29;20032;-79
2021/01/04 04:10:47;;;;;;;89.70;18.65;;;;;;;7.24;90.85;99073.44;4916100;29;20420;-79
2021/01/04 04:13:12;;;;;;;112.15;19.08;;;;;;;7.22;91.20;99068.34;4914644;29;20059;-79
2021/01/04 04:15:38;;;;;;;39.53;17.48;;;;;;;7.25;91.41;99075.03;4913319;29;20469;-78
2021/01/04 04:18:03;;;;;;;63.17;17.00;;;;;;;7.25;91.58;99061.72;4913682;29;20024;-78
2021/01/04 04:20:28;;;;;;;53.63;14.45;;;;;;;7.25;91.54;99058.25;4906584;29;20035;-78
2021/01/04 04:22:55;;;;;;;42.53;14.00;;;;;;;7.27;91.42;99059.59;4915818;29;20052;-78
2021/01/04 04:25:23;;;;;;;69.22;14.55;;;;;;;7.29;91.67;99056.72;4898636;29;20032;-79
2021/01/04 04:27:53;;;;;;;102.72;17.30;;;;;;;7.21;91.48;99045.47;4899328;29;20035;-78
2021/01/04 04:30:21;;;;;;;39.78;15.25;;;;;;;7.30;91.73;99058.28;4907449;29;20036;-79
2021/01/04 04:32:49;;;;;;;67.80;15.53;;;;;;;7.29;91.75;99062.81;4913420;29;20044;-79
2021/01/04 04:35:14;;;;;;;92.40;21.15;;;;;;;7.31;91.70;99058.06;4898960;29;20043;-78
2021/01/04 04:37:41;;;;;;;113.80;21.10;;;;;;;7.32;92.10;99058.84;4898517;29;20028;-78
2021/01/04 04:40:40;;;;;;;109.65;21.15;;;;;;;7.31;91.96;99060.72;4900100;29;20485;-80
2021/01/04 04:43:26;;;;;;;79.97;18.20;;;;;;;7.33;92.26;99071.09;4882368;29;20047;-79
2021/01/04 04:45:51;;;;;;;62.95;17.48;;;;;;;7.36;92.34;99070.56;4907207;29;20042;-77
2021/01/04 04:48:54;;;;;;;64.40;16.25;;;;;;;7.40;91.88;99070.88;4907263;29;20028;-78
2021/01/04 04:51:41;;;;;;;53.00;16.77;;;;;;;7.42;92.04;99068.75;4886420;29;20048;-77
2021/01/04 04:54:45;;;;;;;74.13;15.50;;;;;;;7.46;91.84;99070.66;4896138;29;20093;-77
2021/01/04 04:57:34;;;;;;;58.33;15.85;;;;;;;7.49;92.17;99067.47;4855225;29;20151;-77
2021/01/04 05:00:30;;;;;;;59.20;16.17;;;;;;;7.53;92.12;99076.59;4910903;29;20043;-77
2021/01/04 05:03:14;;;;;;;65.20;15.20;;;;;;;7.53;91.45;99073.91;4897350;29;20024;-77
2021/01/04 05:06:17;;;;;;;53.13;15.52;;;;;;;7.55;91.15;99071.00;4892876;29;20089;-79
2021/01/04 05:09:01;;;;;;;59.55;15.18;;;;;;;7.55;91.41;99071.00;4913388;29;20040;-76
2021/01/04 05:11:32;;;;;;;52.63;14.57;;;;;;;7.55;91.27;99068.34;4916230;29;20028;-76
2021/01/04 05:13:57;;;;;;;74.50;14.75;;;;;;;7.53;91.42;99065.94;4911023;29;20499;-75
2021/01/04 05:17:01;;;;;;;73.22;16.85;;;;;;;7.53;91.02;99063.28;4897688;29;20032;-76
2021/01/04 05:19:45;;;;;;;49.17;15.50;;;;;;;7.51;91.95;99056.59;4882502;29;20081;-77
2021/01/04 05:22:30;;;;;;;46.97;15.98;;;;;;;7.57;92.10;99052.91;4913767;29;20059;-77
2021/01/04 05:25:15;;;;;;;35.63;14.27;;;;;;;7.58;92.00;99046.53;4927131;29;20056;-77
2021/01/04 05:27:57;;;;;;;46.10;15.35;;;;;;;7.60;91.66;99056.94;4910988;29;20031;-80
2021/01/04 05:30:37;;;;;;;62.15;15.40;;;;;;;7.60;91.38;99049.72;4914154;29;20036;-73
2021/01/04 05:33:26;;;;;;;41.25;14.32;;;;;;;7.62;91.81;99052.16;4916921;29;20095;-74
2021/01/04 05:36:04;;;;;;;87.60;17.88;;;;;;;7.62;91.51;99036.19;4914497;29;20497;-77
2021/01/04 05:39:16;;;;;;;58.20;16.88;;;;;;;7.63;91.69;99038.59;4918431;29;20079;-77
2021/01/04 05:41:45;;;;;;;40.53;16.80;;;;;;;7.64;91.38;99055.34;4888303;29;20132;-78
2021/01/04 05:44:39;;;;;;;66.40;17.70;;;;;;;7.64;91.59;99056.16;4914738;29;20032;-77
2021/01/04 05:47:28;;;;;;;49.15;16.45;;;;;;;7.65;91.54;99047.13;4915000;29;20028;-78
2021/01/04 05:50:17;;;;;;;96.50;18.17;;;;;;;7.61;91.69;99035.38;4912409;29;20028;-76
2021/01/04 05:52:44;;;;;;;39.28;14.35;;;;;;;7.59;91.53;99044.69;4910535;29;20063;-78
2021/01/04 05:55:13;;;;;;;69.07;18.35;;;;;;;7.58;91.27;99043.06;4914480;29;20039;-78
2021/01/04 05:57:46;;;;;;;;;;;;;;;7.57;91.56;99038.78;4916051;29;20111;-78
2021/01/04 06:00:12;;;;;;;49.25;16.58;;;;;;;7.53;91.20;99035.84;4916186;29;19915;-78
2021/01/04 06:02:38;;;;;;;52.03;15.82;;;;;;;7.53;91.09;99046.50;4916115;29;20111;-77
2021/01/04 06:05:14;;;;;;;48.60;17.20;;;;;;;7.51;91.57;99044.09;4914200;29;20141;-78
2021/01/04 06:07:43;;;;;;;60.88;17.10;;;;;;;7.49;90.94;99035.56;4909990;29;20028;-76
2021/01/04 06:10:22;;;;;;;71.97;17.08;;;;;;;7.44;91.44;99032.06;4914969;29;20410;-78
2021/01/04 06:12:51;;;;;;;72.57;15.25;;;;;;;7.42;91.68;99042.16;4911678;29;20211;-78
2021/01/04 06:15:27;;;;;;;62.40;14.93;;;;;;;7.36;91.76;99042.13;4907910;29;20039;-79
2021/01/04 06:18:00;;;;;;;72.00;16.55;;;;;;;7.34;91.89;99038.91;4918845;29;20103;-78
2021/01/04 06:20:46;;;;;;;48.47;16.38;;;;;;;7.33;91.66;99047.16;4912687;29;20036;-78
2021/01/04 06:23:14;;;;;;;64.82;17.60;;;;;;;7.31;92.21;99038.63;4889515;29;20517;-78
2021/01/04 06:25:39;;;;;;;;;;;;;;;7.33;92.53;99036.50;4919191;29;20028;-78
2021/01/04 06:28:05;;;;;;;37.95;14.45;;;;;;;7.35;92.46;99034.41;4918355;29;19915;-78
2021/01/04 06:30:36;;;;;;;58.13;19.42;;;;;;;7.34;92.30;99030.13;4913444;29;20040;-78
2021/01/04 06:33:09;;;;;;;67.80;19.02;;;;;;;7.41;92.69;99033.38;4918679;29;20398;-78
2021/01/04 06:35:34;;;;;;;51.90;18.80;;;;;;;7.44;92.60;99035.53;4920666;29;20032;-78
2021/01/04 06:38:22;;;;;;;62.63;20.10;;;;;;;7.47;92.34;99031.53;4918832;29;20040;-78
2021/01/04 06:40:48;;;;;;;103.47;23.38;;;;;;;7.49;92.21;99027.56;4916881;29;20032;-78
2021/01/04 06:43:30;;;;;;;86.13;20.40;;;;;;;7.52;91.90;99037.72;4921737;29;20099;-78
2021/01/04 06:46:27;;;;;;;65.85;20.15;;;;;;;7.54;92.46;99037.44;4918358;29;20036;-78
2021/01/04 06:48:59;;;;;;;111.35;22.27;;;;;;;7.55;92.28;99035.59;4917006;29;20115;-78
2021/01/04 06:51:42;;;;;;;107.80;21.60;;;;;;;7.51;91.89;99030.78;4921277;29;20028;-78
2021/01/04 06:54:14;;;;;;;97.72;21.10;;;;;;;7.51;92.21;99032.66;4921320;29;20051;-77
2021/01/04 06:56:45;;;;;;;89.28;17.15;;;;;;;7.48;92.49;99027.84;4914473;29;20039;-78
2021/01/04 06:59:47;;;;;;;121.72;19.70;;;;;;;7.47;92.11;99031.53;4917100;29;20123;-78
2021/01/04 07:03:00;;;;;;;70.50;16.40;;;;;;;7.44;92.17;99019.56;4917482;29;20098;-78
2021/01/04 07:05:57;;;;;;;96.05;20.15;;;;;;;7.44;93.16;99030.19;4871234;29;20193;-78
2021/01/04 07:08:56;;;;;;;93.18;18.58;;;;;;;7.42;93.30;99024.34;4876356;29;20041;-78
2021/01/04 07:11:41;;;;;;;65.60;17.73;;;;;;;7.44;93.86;99032.88;4903756;29;20059;-78
2021/01/04 07:14:28;;;;;;;56.83;17.15;;;;;;;7.48;93.78;99033.97;4916890;29;20515;-78
2021/01/04 07:17:20;;;;;;;45.55;15.93;;;;;;;7.53;93.91;99034.00;4913571;29;20032;-78
2021/01/04 07:20:07;;;;;;;104.18;21.40;;;;;;;7.57;93.71;99020.97;4882600;29;20040;-79
2021/01/04 07:22:57;;;;;;;78.68;20.88;;;;;;;7.62;93.72;99028.22;4915115;29;20044;-78
2021/01/04 07:25:50;;;;;;;70.13;16.98;;;;;;;7.65;93.82;99022.34;4915808;29;20032;-78
2021/01/04 07:28:40;;;;;;;129.00;20.45;;;;;;;7.67;94.20;99012.25;4900917;29;20119;-78
2021/01/04 07:31:17;;;;;;;64.60;18.38;;;;;;;7.72;94.17;99014.16;4916813;29;20032;-78
2021/01/04 07:33:55;;;;;;;78.80;17.73;;;;;;;7.77;94.58;99020.28;4911776;29;20040;-77
2021/01/04 07:36:32;;;;;;;86.40;18.70;;;;;;;7.81;94.09;99020.56;4915621;29;20032;-78
2021/01/04 07:39:18;;;;;;;68.25;17.40;;;;;;;7.87;94.66;99016.09;4915906;29;20040;-78
2021/01/04 07:42:14;;;;;;;72.53;19.90;;;;;;;7.92;94.42;99011.59;4913276;29;20032;-78
2021/01/04 07:45:07;;;;;;;61.30;18.75;;;;;;;8.00;94.92;99012.97;4917521;29;20040;-78
2021/01/04 07:47:55;;;;;;;51.58;20.35;;;;;;;8.07;95.04;99010.88;4910991;29;20398;-78
2021/01/04 07:50:20;;;;;;;46.03;18.63;;;;;;;8.14;94.75;99007.94;4915940;29;20470;-78
2021/01/04 07:53:10;;;;;;;45.45;17.40;;;;;;;8.20;94.24;99014.91;4915125;29;20036;-78
2021/01/04 07:55:45;;;;;;;38.13;16.17;;;;;;;8.23;94.16;99008.28;4915051;29;20036;-78
2021/01/04 07:58:32;;;;;;;38.65;17.20;;;;;;;8.29;94.08;99012.56;4915164;29;20031;-79
2021/01/04 08:01:22;;;;;;;51.65;21.52;;;;;;;8.34;93.66;99016.00;4915482;29;20035;-78
2021/01/04 08:04:09;;;;;;;50.70;22.20;;;;;;;8.37;93.69;99005.91;4912578;29;20028;-78
2021/01/04 08:07:13;;;;;;;50.75;20.75;;;;;;;8.41;94.01;98996.31;4910794;29;20067;-78
2021/01/04 08:10:00;;;;;;;44.78;20.65;;;;;;;8.43;93.92;98996.84;4907253;29;20046;-78
2021/01/04 08:12:44;;;;;;;45.35;20.67;;;;;;;8.49;94.03;99007.31;4916593;29;20162;-79
2021/01/04 08:15:37;;;;;;;40.90;20.85;;;;;;;8.53;94.01;98993.44;4915620;29;20507;-78
2021/01/04 08:18:12;;;;;;;47.20;22.48;;;;;;;8.59;94.04;98990.53;4914674;29;20040;-78
2021/01/04 08:20:50;;;;;;;60.38;26.02;;;;;;;8.64;93.73;98976.41;4911208;29;20028;-78
2021/01/04 08:23:25;;;;;;;48.95;22.63;;;;;;;8.71;94.04;98981.50;4914822;29;20059;-79
2021/01/04 08:25:53;;;;;;;46.22;21.52;;;;;;;8.78;94.09;98977.47;4914843;29;20042;-79
2021/01/04 08:28:35;;;;;;;47.75;22.42;;;;;;;8.86;93.77;98975.34;4916202;29;20032;-78
2021/01/04 08:31:11;;;;;;;48.75;22.00;;;;;;;8.92;93.56;98966.28;4913270;29;20123;-78
2021/01/04 08:33:54;;;;;;;50.03;21.95;;;;;;;8.97;93.42;98960.94;4909832;29;20032;-79
2021/01/04 08:36:27;;;;;;;47.28;22.05;;;;;;;9.03;93.13;98951.88;4914958;29;20036;-79
2021/01/04 08:39:28;;;;;;;60.72;24.27;;;;;;;9.07;93.20;98952.13;4913701;29;20094;-79
2021/01/04 08:42:06;;;;;;;58.95;25.85;;;;;;;9.15;92.53;98940.16;4912280;29;20449;-78
2021/01/04 08:44:34;;;;;;;56.90;25.75;;;;;;;9.20;93.07;98953.47;4909378;29;20032;-79
2021/01/04 08:47:18;;;;;;;65.53;26.50;;;;;;;9.29;93.55;98944.66;4914574;29;20131;-79
2021/01/04 08:49:47;;;;;;;43.05;23.55;;;;;;;9.35;92.98;98934.78;4910635;29;20031;-79
2021/01/04 08:52:20;;;;;;;64.82;27.40;;;;;;;9.41;93.16;98928.34;4914259;29;20028;-79
2021/01/04 08:54:57;;;;;;;51.00;24.40;;;;;;;9.49;92.57;98934.22;4913921;29;20035;-78
2021/01/04 08:57:37;;;;;;;60.88;25.70;;;;;;;9.58;92.69;98936.06;4914003;29;20123;-78
2021/01/04 09:00:20;;;;;;;59.05;27.33;;;;;;;9.67;92.70;98930.94;4914350;29;20031;-78
2021/01/04 09:02:46;;;;;;;44.08;20.52;;;;;;;9.75;92.11;98929.56;4911598;29;20021;-78
2021/01/04 09:05:27;;;;;;;36.90;18.60;;;;;;;9.82;92.36;98924.75;4905976;29;20024;-78
2021/01/04 09:07:56;;;;;;;40.50;17.05;;;;;;;9.92;91.75;98930.06;4913459;29;20043;-79
2021/01/04 09:10:25;;;;;;;31.55;15.63;;;;;;;9.97;90.61;98920.41;4907038;29;20062;-78
2021/01/04 09:12:53;;;;;;;32.03;16.52;;;;;;;10.04;90.53;98920.91;4913446;29;20024;-79
2021/01/04 09:15:19;;;;;;;;;;;;;;;10.08;90.28;98912.06;4907408;29;20036;-78
2021/01/04 09:17:48;;;;;;;28.08;15.35;;;;;;;10.11;89.63;98897.34;4913532;29;19915;-78
2021/01/04 09:20:25;;;;;;;35.33;16.70;;;;;;;10.14;90.05;98896.00;4898301;29;20126;-79
2021/01/04 09:23:09;;;;;;;38.47;16.23;;;;;;;10.17;89.67;98890.91;4913132;29;20056;-78
2021/01/04 09:25:54;;;;;;;35.90;16.25;;;;;;;10.24;90.01;98888.72;4914568;29;20497;-78
2021/01/04 09:28:22;;;;;;;28.05;14.27;;;;;;;10.28;88.82;98886.28;4907134;29;20582;-78
2021/01/04 09:30:50;;;;;;;36.67;15.95;;;;;;;10.31;88.99;98874.25;4913407;29;20118;-78
2021/01/04 09:33:19;;;;;;;33.40;15.70;;;;;;;10.36;88.35;98868.84;4906288;29;20037;-78
2021/01/04 09:35:45;;;;;;;33.80;14.85;;;;;;;10.42;88.21;98867.78;4913194;29;20031;-78
2021/01/04 09:38:21;;;;;;;26.05;14.15;;;;;;;10.49;87.62;98878.16;4905563;29;20429;-78
2021/01/04 09:41:03;;;;;;;28.27;13.43;;;;;;;10.53;86.85;98860.47;4913073;29;20062;-78
2021/01/04 09:43:31;;;;;;;24.52;12.90;;;;;;;10.60;86.62;98852.94;4907874;29;20040;-78
2021/01/04 09:46:27;;;;;;;23.02;13.20;;;;;;;10.67;85.51;98858.75;4913075;29;20449;-78
2021/01/04 09:49:18;;;;;;;22.55;12.98;;;;;;;10.76;85.53;98844.78;4910464;29;20036;-78
2021/01/04 09:52:01;;;;;;;29.88;13.68;;;;;;;10.82;85.32;98849.00;4915970;29;20095;-78
2021/01/04 09:54:43;;;;;;;24.17;13.40;;;;;;;10.85;85.58;98835.84;4910911;29;20076;-78
2021/01/04 09:57:09;;;;;;;24.20;13.45;;;;;;;10.91;85.44;98827.78;4916941;29;20032;-78
2021/01/04 09:59:43;;;;;;;26.58;12.57;;;;;;;10.95;85.02;98834.97;4912131;29;20032;-78
2021/01/04 10:02:37;;;;;;;24.70;11.68;;;;;;;11.00;84.63;98826.88;4916608;29;20080;-77
2021/01/04 10:05:09;;;;;;;22.48;11.00;;;;;;;11.03;84.16;98806.78;4895631;29;20063;-77
2021/01/04 10:07:35;;;;;;;27.42;14.30;;;;;;;11.08;83.88;98806.72;4911935;29;20031;-77
2021/01/04 10:10:07;;;;;;;18.10;10.90;;;;;;;11.12;83.58;98798.91;4916262;29;20276;-77
2021/01/04 10:12:32;;;;;;;22.23;11.63;;;;;;;11.13;83.46;98782.59;4911476;29;20028;-77
2021/01/04 10:15:02;;;;;;;23.02;13.55;;;;;;;11.19;83.96;98783.31;4916251;29;20032;-77
2021/01/04 10:17:40;;;;;;;19.80;9.70;;;;;;;11.24;82.75;98779.78;4910925;29;20020;-77
2021/01/04 10:20:21;;;;;;;18.50;11.90;;;;;;;11.27;81.44;98763.94;4916449;29;20058;-76
2021/01/04 10:22:50;;;;;;;21.33;9.90;;;;;;;11.38;82.25;98764.59;4912743;29;20138;-76
2021/01/04 10:25:37;;;;;;;22.77;12.20;;;;;;;11.44;82.66;98752.75;4909094;29;20036;-76
2021/01/04 10:28:03;;;;;;;23.67;10.50;;;;;;;11.59;81.24;98754.41;4916245;29;20133;-76
2021/01/04 10:30:31;;;;;;;22.75;10.48;;;;;;;11.68;80.89;98750.00;4910752;29;20490;-76
2021/01/04 10:33:09;;;;;;;19.23;10.73;;;;;;;11.81;80.88;98739.63;4915861;29;20035;-76
2021/01/04 10:35:35;;;;;;;22.73;12.73;;;;;;;11.85;79.83;98730.72;4911484;29;20036;-78
2021/01/04 10:38:18;;;;;;;15.38;10.05;;;;;;;12.00;78.86;98745.00;4915877;29;20042;-76
2021/01/04 10:40:46;;;;;;;25.48;11.45;;;;;;;12.06;78.72;98726.94;4912341;29;20036;-75
2021/01/04 10:43:17;;;;;;;24.70;11.68;;;;;;;12.14;77.46;98721.69;4915998;29;20165;-76
2021/01/04 10:45:44;;;;;;;17.73;10.32;;;;;;;12.20;76.97;98725.09;4915647;29;20052;-78
2021/01/04 10:48:25;;;;;;;19.25;10.20;;;;;;;12.26;76.80;98707.03;4915993;29;20105;-77
2021/01/04 10:50:53;;;;;;;25.23;10.63;;;;;;;12.30;76.13;98700.00;4916881;29;20040;-77
2021/01/04 10:53:31;;;;;;;19.35;10.52;;;;;;;12.35;75.72;98688.38;4909052;29;20028;-78
2021/01/04 10:56:08;;;;;;;22.52;10.63;;;;;;;12.43;76.10;98677.75;4915629;29;20044;-78
2021/01/04 10:58:46;;;;;;;26.67;12.27;;;;;;;12.51;75.88;98667.44;4911006;29;20095;-78
2021/01/04 11:01:16;;;;;;;22.67;13.17;;;;;;;12.56;75.24;98667.31;4915768;29;20057;-78
2021/01/04 11:04:12;;;;;;;19.60;11.00;;;;;;;12.60;74.69;98658.38;4915035;29;20772;-76
2021/01/04 11:06:43;;;;;;;17.50;8.02;;;;;;;12.71;73.65;98652.84;4915681;29;20504;-76
2021/01/04 11:09:19;;;;;;;15.23;8.05;;;;;;;12.77;73.52;98640.91;4915438;29;20032;-76
2021/01/04 11:11:48;;;;;;;16.80;8.65;;;;;;;12.85;72.58;98634.03;4911853;29;20464;-78
2021/01/04 11:14:23;;;;;;;22.17;9.95;;;;;;;12.87;72.27;98627.25;4915546;29;20062;-78
2021/01/04 11:16:51;;;;;;;14.20;8.13;;;;;;;12.90;72.09;98628.53;4914927;29;20037;-77
2021/01/04 11:19:32;;;;;;;18.23;8.10;;;;;;;12.94;72.19;98627.66;4908352;29;20039;-78
2021/01/04 11:22:10;;;;;;;18.58;8.15;;;;;;;12.97;71.33;98618.19;4914862;29;20054;-78
2021/01/04 11:24:36;;;;;;;14.98;9.15;;;;;;;13.00;71.61;98609.56;4916598;29;20039;-78
2021/01/04 11:27:02;;;;;;;21.40;9.07;;;;;;;13.01;71.00;98599.59;4913797;29;20048;-78
2021/01/04 11:29:27;;;;;;;13.43;7.50;;;;;;;13.02;70.21;98593.91;4909416;29;20029;-78
2021/01/04 11:31:53;;;;;;;16.70;9.35;;;;;;;13.01;70.16;98595.03;4914953;29;20035;-76
2021/01/04 11:34:18;;;;;;;16.17;8.05;;;;;;;13.01;69.15;98591.53;4908234;29;20028;-78
2021/01/04 11:36:43;;;;;;;17.27;10.70;;;;;;;13.02;69.86;98585.06;4914748;29;20095;-79
2021/01/04 11:39:09;;;;;;;23.83;9.80;;;;;;;13.02;69.76;98580.50;4914691;29;20405;-78
2021/01/04 11:41:34;;;;;;;14.30;8.38;;;;;;;13.03;69.76;98562.50;4910043;29;20028;-78
2021/01/04 11:43:59;;;;;;;22.73;11.07;;;;;;;13.03;69.98;98571.34;4915998;29;20041;-78
2021/01/04 11:46:25;;;;;;;21.13;9.75;;;;;;;13.02;70.15;98566.28;4909005;29;20123;-78
2021/01/04 11:48:50;;;;;;;27.67;9.63;;;;;;;13.00;70.00;98565.78;4914349;29;20126;-77
2021/01/04 11:51:20;;;;;;;20.05;10.18;;;;;;;12.94;69.86;98549.81;4907782;29;20038;-78
2021/01/04 11:53:47;;;;;;;21.25;9.43;;;;;;;12.92;69.46;98554.69;4915852;29;20040;-78
2021/01/04 11:56:12;;;;;;;17.02;10.25;;;;;;;12.90;70.31;98542.66;4907245;29;20477;-78
2021/01/04 11:58:39;;;;;;;23.40;10.60;;;;;;;12.88;70.01;98552.94;4914692;29;20062;-78
2021/01/04 12:01:05;;;;;;;19.67;10.88;;;;;;;12.87;70.36;98543.28;4914324;29;20499;-79
2021/01/04 12:03:31;;;;;;;16.95;9.10;;;;;;;12.80;69.81;98536.44;4909422;29;20501;-79
2021/01/04 12:05:56;;;;;;;19.65;10.82;;;;;;;12.79;70.14;98536.72;4914287;29;20095;-78
2021/01/04 12:08:21;;;;;;;21.02;12.27;;;;;;;12.77;70.61;98542.41;4908128;29;20397;-78